Terminal Aerodrome Forecast
Issued by NWS Wakefield, VA

Current Version | Previous Version | Text Only | Print | Product List | Glossary On
Versions: 1 2 3 4 5 6 7 8 9 10 11 12 13 14 15 16 17 18 19
000
FTUS41 KAKQ 010500
TAFRIC
TAF
KRIC 010527Z 0106/0206 VRB03KT P6SM FEW090 SCT200
     FM011000 08003KT P6SM BKN050 OVC100
     FM011300 06003KT 4SM -PL BR OVC030
     FM011500 06004KT 2SM -FZRA BR OVC015
     FM012000 33005KT 2SM -DZ BR OVC007
     FM020000 23003KT 3SM BR OVC007=

USA.gov is the U.S. government's official web portal to all federal, state and local government web resources and services.